Time;durP1;ratioP1;P1;durP2;ratioP2;P2;SDS_P1;SDS_P2;PMS_P1;PMS_P2;Temp;Humidity;BMP_temperature;BMP_pressure;BME280_temperature;BME280_humidity;BME280_pressure;Samples;Min_cycle;Max_cycle;Signal;HPM_P1;HPM_P2
2024/03/07 00:01:35;;;;;;;51.72;36.55;;;;;;;3.78;100.00;102386.91;5044867;28;20029;-70
2024/03/07 00:04:00;;;;;;;50.80;35.08;;;;;;;3.80;100.00;102395.72;5041013;28;20513;-70
2024/03/07 00:06:26;;;;;;;49.47;34.10;;;;;;;3.83;100.00;102390.69;5043021;28;20119;-73
2024/03/07 00:08:51;;;;;;;52.30;37.08;;;;;;;3.82;100.00;102383.63;5042319;28;20037;-72
2024/03/07 00:11:17;;;;;;;51.63;36.25;;;;;;;3.84;100.00;102396.00;5042823;28;20057;-70
2024/03/07 00:13:43;;;;;;;51.15;36.65;;;;;;;3.78;100.00;102387.78;5043721;28;20029;-73
2024/03/07 00:16:10;;;;;;;49.42;35.35;;;;;;;3.78;100.00;102403.47;5042180;28;20029;-70
2024/03/07 00:18:36;;;;;;;47.95;35.33;;;;;;;3.77;100.00;102391.22;5044001;28;20045;-72
2024/03/07 00:21:03;;;;;;;49.65;35.58;;;;;;;3.70;100.00;102389.09;5041132;28;20041;-72
2024/03/07 00:23:28;;;;;;;49.00;35.17;;;;;;;3.63;100.00;102394.78;5044104;28;20032;-70
2024/03/07 00:25:54;;;;;;;47.88;35.22;;;;;;;3.62;100.00;102396.47;5041687;28;20510;-71
2024/03/07 00:28:19;;;;;;;49.80;35.67;;;;;;;3.58;100.00;102399.75;5041801;28;20021;-75
2024/03/07 00:30:45;;;;;;;49.17;34.55;;;;;;;3.58;100.00;102398.81;5042931;28;20024;-71
2024/03/07 00:33:11;;;;;;;46.97;34.38;;;;;;;3.46;100.00;102394.69;5041735;28;20033;-70
2024/03/07 00:35:37;;;;;;;50.33;35.47;;;;;;;3.41;100.00;102390.03;5044256;28;20067;-71
2024/03/07 00:38:03;;;;;;;50.13;35.22;;;;;;;3.39;100.00;102387.28;5040888;28;20056;-72
2024/03/07 00:40:29;;;;;;;49.25;34.65;;;;;;;3.28;100.00;102388.41;5044129;28;20028;-70
2024/03/07 00:42:54;;;;;;;52.30;36.72;;;;;;;3.33;100.00;102392.16;5041506;28;20033;-70
2024/03/07 00:45:19;;;;;;;49.20;35.58;;;;;;;3.27;100.00;102387.47;5042709;28;20037;-76
2024/03/07 00:47:45;;;;;;;52.38;36.67;;;;;;;3.29;100.00;102384.94;5042738;28;20040;-70
2024/03/07 00:50:10;;;;;;;50.25;35.38;;;;;;;3.30;100.00;102382.44;5041536;28;20026;-81
2024/03/07 00:52:36;;;;;;;51.60;36.55;;;;;;;3.28;100.00;102378.84;5042801;28;20479;-81
2024/03/07 00:55:02;;;;;;;55.35;37.67;;;;;;;3.29;100.00;102384.94;5040765;28;20033;-75
2024/03/07 00:57:27;;;;;;;52.17;36.20;;;;;;;3.13;100.00;102380.53;5043792;28;20152;-70
2024/03/07 00:59:53;;;;;;;52.63;37.38;;;;;;;3.19;100.00;102385.22;5041597;28;20104;-70
2024/03/07 01:02:19;;;;;;;50.35;35.70;;;;;;;3.17;100.00;102386.88;5042881;28;20085;-81
2024/03/07 01:04:44;;;;;;;52.83;37.20;;;;;;;3.12;100.00;102377.03;5042486;28;20029;-83
2024/03/07 01:07:10;;;;;;;51.50;36.80;;;;;;;3.14;100.00;102378.00;5041162;28;20029;-80
2024/03/07 01:09:35;;;;;;;52.38;37.20;;;;;;;3.21;100.00;102375.78;5044098;28;20025;-70
2024/03/07 01:12:05;;;;;;;50.55;36.00;;;;;;;3.22;100.00;102383.72;5040417;28;20022;-70
2024/03/07 01:14:31;;;;;;;50.58;36.25;;;;;;;3.20;100.00;102374.84;5036344;28;20069;-71
2024/03/07 01:16:56;;;;;;;51.10;36.67;;;;;;;3.17;100.00;102368.56;5043346;28;20167;-70
2024/03/07 01:19:22;;;;;;;53.75;37.88;;;;;;;3.16;100.00;102377.22;5042609;28;20495;-72
2024/03/07 01:21:48;;;;;;;54.83;38.40;;;;;;;3.13;100.00;102376.22;5045852;28;20029;-70
2024/03/07 01:24:20;;;;;;;54.13;37.60;;;;;;;3.14;100.00;102367.56;5045256;28;20040;-71
2024/03/07 01:26:45;;;;;;;54.28;38.83;;;;;;;3.16;100.00;102366.75;5044357;28;20032;-71
2024/03/07 01:29:10;;;;;;;56.20;39.53;;;;;;;3.14;100.00;102364.94;5047093;28;20486;-71
2024/03/07 01:31:36;;;;;;;53.13;37.58;;;;;;;3.11;100.00;102361.25;5044294;28;20041;-71
2024/03/07 01:34:01;;;;;;;54.28;39.17;;;;;;;3.10;100.00;102368.22;5046196;28;20123;-70
2024/03/07 01:36:26;;;;;;;56.78;39.17;;;;;;;3.11;100.00;102354.31;5043182;28;20435;-70
2024/03/07 01:38:52;;;;;;;54.83;39.22;;;;;;;3.07;100.00;102352.34;5046484;28;20029;-70
2024/03/07 01:41:18;;;;;;;58.92;40.75;;;;;;;3.06;100.00;102360.06;5045799;28;20082;-74
2024/03/07 01:43:43;;;;;;;56.92;40.13;;;;;;;3.09;100.00;102355.94;5044792;28;20029;-80
2024/03/07 01:46:10;;;;;;;60.33;41.20;;;;;;;3.09;100.00;102365.50;5046991;28;20113;-82
2024/03/07 01:48:37;;;;;;;59.88;42.17;;;;;;;3.10;100.00;102347.31;5043853;28;20566;-78
2024/03/07 01:51:05;;;;;;;64.45;43.67;;;;;;;3.17;100.00;102356.38;5039905;28;20025;-72
2024/03/07 01:53:31;;;;;;;62.28;43.30;;;;;;;3.21;100.00;102349.66;5039991;28;20026;-71
2024/03/07 01:55:59;;;;;;;61.50;42.40;;;;;;;3.19;100.00;102346.03;5046562;28;20033;-72
2024/03/07 01:58:24;;;;;;;65.82;43.95;;;;;;;3.20;100.00;102348.72;5044396;28;20456;-71
2024/03/07 02:00:50;;;;;;;62.70;42.45;;;;;;;3.14;100.00;102346.66;5045816;28;20083;-76
2024/03/07 02:03:16;;;;;;;63.30;43.53;;;;;;;3.08;100.00;102341.06;5045527;28;20033;-81
2024/03/07 02:05:42;;;;;;;65.10;44.97;;;;;;;3.11;100.00;102343.84;5044284;28;20506;-72
2024/03/07 02:08:07;;;;;;;62.33;43.88;;;;;;;3.12;100.00;102339.56;5047104;28;20100;-74
2024/03/07 02:10:33;;;;;;;68.93;44.67;;;;;;;3.08;100.00;102342.78;5043505;28;20109;-77
2024/03/07 02:12:58;;;;;;;67.20;45.53;;;;;;;3.09;100.00;102342.00;5046810;28;20518;-80
2024/03/07 02:15:23;;;;;;;67.57;44.88;;;;;;;3.14;100.00;102344.03;5043052;28;20387;-82
2024/03/07 02:17:49;;;;;;;68.32;45.38;;;;;;;3.13;100.00;102342.25;5044968;28;20061;-82
2024/03/07 02:20:15;;;;;;;67.68;44.95;;;;;;;3.08;100.00;102335.84;5045580;28;20066;-81
2024/03/07 02:22:41;;;;;;;65.28;45.15;;;;;;;3.09;100.00;102335.03;5043744;28;20029;-74
2024/03/07 02:25:09;;;;;;;67.72;45.08;;;;;;;3.02;100.00;102332.88;5046626;28;20471;-74
2024/03/07 02:27:35;;;;;;;68.82;45.33;;;;;;;2.98;100.00;102325.66;5043308;28;20030;-75
2024/03/07 02:30:03;;;;;;;74.25;47.33;;;;;;;2.97;100.00;102323.84;5038814;28;20463;-73
2024/03/07 02:32:29;;;;;;;74.07;46.97;;;;;;;2.98;100.00;102328.28;5046110;28;20033;-71
2024/03/07 02:34:54;;;;;;;73.82;47.58;;;;;;;3.00;100.00;102330.97;5044261;28;20104;-70
2024/03/07 02:37:20;;;;;;;78.28;48.25;;;;;;;2.91;100.00;102333.94;5044671;28;20087;-72
2024/03/07 02:39:45;;;;;;;73.40;48.25;;;;;;;2.92;100.00;102323.59;5045050;28;20029;-71
2024/03/07 02:42:11;;;;;;;74.93;48.28;;;;;;;2.94;100.00;102326.28;5042562;28;20026;-69
2024/03/07 02:44:38;;;;;;;77.43;48.60;;;;;;;2.92;100.00;102318.38;5045987;28;20383;-72
2024/03/07 02:47:04;;;;;;;77.40;48.83;;;;;;;2.87;100.00;102316.28;5042765;28;20038;-72
2024/03/07 02:49:29;;;;;;;79.80;48.05;;;;;;;2.86;100.00;102309.28;5046095;28;20118;-72
2024/03/07 02:51:55;;;;;;;74.35;47.95;;;;;;;2.83;100.00;102322.16;5043325;28;20029;-71
2024/03/07 02:54:20;;;;;;;76.80;49.45;;;;;;;2.77;100.00;102314.84;5044446;28;20025;-71
2024/03/07 02:56:46;;;;;;;74.32;47.85;;;;;;;2.79;100.00;102314.13;5044691;28;20483;-70
2024/03/07 02:59:11;;;;;;;78.28;49.47;;;;;;;2.75;100.00;102317.38;5043131;28;20074;-70
2024/03/07 03:01:37;;;;;;;78.97;49.15;;;;;;;2.79;100.00;102323.69;5044572;28;20029;-76
2024/03/07 03:04:02;;;;;;;78.45;49.40;;;;;;;2.78;100.00;102322.78;5042407;28;20112;-76
2024/03/07 03:06:28;;;;;;;79.45;49.65;;;;;;;2.74;100.00;102320.78;5045273;28;20037;-72
2024/03/07 03:08:54;;;;;;;79.28;50.60;;;;;;;2.73;100.00;102318.09;5042224;28;20501;-73
2024/03/07 03:11:20;;;;;;;81.00;50.20;;;;;;;2.68;100.00;102311.69;5043959;28;20096;-71
2024/03/07 03:13:48;;;;;;;80.70;50.42;;;;;;;2.71;100.00;102310.16;5044459;28;20033;-71
2024/03/07 03:16:13;;;;;;;83.03;50.85;;;;;;;2.70;100.00;102317.91;5043101;28;20036;-70
2024/03/07 03:18:39;;;;;;;85.78;50.95;;;;;;;2.69;100.00;102309.16;5045177;28;20029;-71
2024/03/07 03:21:04;;;;;;;78.63;48.50;;;;;;;2.66;100.00;102308.97;5042081;28;20029;-70
2024/03/07 03:23:30;;;;;;;81.28;50.63;;;;;;;2.62;100.00;102306.97;5045241;28;20060;-72
2024/03/07 03:25:55;;;;;;;80.40;50.30;;;;;;;2.61;100.00;102310.44;5043074;28;20470;-73
2024/03/07 03:28:21;;;;;;;81.72;50.83;;;;;;;2.60;100.00;102303.41;5043906;28;20037;-70
2024/03/07 03:30:48;;;;;;;83.68;50.75;;;;;;;2.59;100.00;102306.81;5044002;28;20040;-75
2024/03/07 03:33:15;;;;;;;83.50;51.65;;;;;;;2.54;100.00;102305.66;5042861;28;20393;-71
2024/03/07 03:35:40;;;;;;;83.72;51.65;;;;;;;2.52;100.00;102299.41;5044683;28;20025;-71
2024/03/07 03:38:07;;;;;;;82.57;50.65;;;;;;;2.48;100.00;102305.28;5041842;28;20361;-71
2024/03/07 03:40:33;;;;;;;83.85;51.10;;;;;;;2.48;100.00;102300.06;5045454;28;20025;-71
2024/03/07 03:43:00;;;;;;;83.80;51.60;;;;;;;2.46;100.00;102288.59;5041243;28;20459;-71
2024/03/07 03:45:25;;;;;;;85.35;51.78;;;;;;;2.44;100.00;102292.00;5044432;28;20370;-70
2024/03/07 03:47:51;;;;;;;84.47;51.15;;;;;;;2.44;100.00;102293.72;5041798;28;20091;-71
2024/03/07 03:50:22;;;;;;;81.20;52.05;;;;;;;2.39;100.00;102292.56;5043209;28;20036;-79
2024/03/07 03:52:47;;;;;;;82.72;52.50;;;;;;;2.36;100.00;102293.28;5043598;28;20102;-73
2024/03/07 03:55:13;;;;;;;82.93;51.85;;;;;;;2.34;100.00;102288.78;5042297;28;20464;-75
2024/03/07 03:57:39;;;;;;;81.63;51.10;;;;;;;2.31;100.00;102294.69;5044520;28;20108;-77
2024/03/07 04:00:16;;;;;;;82.70;51.13;;;;;;;2.30;100.00;102300.75;5041481;28;20063;-76
2024/03/07 04:02:49;;;;;;;85.88;52.35;;;;;;;2.26;100.00;102291.81;5039354;28;20037;-75
2024/03/07 04:05:17;;;;;;;82.25;51.10;;;;;;;2.18;100.00;102290.44;5043475;28;20028;-80
2024/03/07 04:07:43;;;;;;;80.88;50.33;;;;;;;2.19;100.00;102297.47;5041852;28;20535;-78
2024/03/07 04:10:10;;;;;;;76.63;49.67;;;;;;;2.16;100.00;102288.56;5044637;28;20025;-81
2024/03/07 04:12:39;;;;;;;81.97;51.60;;;;;;;2.10;100.00;102291.69;5041133;28;20040;-73
2024/03/07 04:15:07;;;;;;;79.63;51.05;;;;;;;2.05;100.00;102296.63;5036026;28;20076;-81
2024/03/07 04:17:35;;;;;;;80.60;50.72;;;;;;;2.03;100.00;102290.38;5036985;28;20538;-79
2024/03/07 04:20:06;;;;;;;80.97;50.60;;;;;;;2.02;100.00;102292.91;5044118;28;20033;-78
2024/03/07 04:22:34;;;;;;;79.00;49.45;;;;;;;1.99;100.00;102290.09;5041144;28;20488;-81
2024/03/07 04:25:01;;;;;;;78.50;49.00;;;;;;;1.96;100.00;102292.53;5044304;28;20044;-79
2024/03/07 04:27:26;;;;;;;82.88;51.92;;;;;;;1.92;100.00;102294.03;5042158;28;20028;-82
2024/03/07 04:29:52;;;;;;;80.05;51.35;;;;;;;1.87;100.00;102293.75;5043158;28;20041;-80
2024/03/07 04:32:17;;;;;;;76.75;51.13;;;;;;;1.90;100.00;102299.16;5041834;28;20045;-82
2024/03/07 04:34:46;;;;;;;85.53;52.22;;;;;;;1.88;100.00;102295.56;5041478;28;20036;-81
2024/03/07 04:37:11;;;;;;;84.05;51.88;;;;;;;1.87;100.00;102288.53;5043666;28;20071;-81
2024/03/07 04:39:38;;;;;;;82.90;52.20;;;;;;;1.88;100.00;102294.66;5041038;28;20120;-81
2024/03/07 04:42:06;;;;;;;83.32;51.75;;;;;;;1.81;100.00;102292.47;5044210;28;20028;-82
2024/03/07 04:44:35;;;;;;;87.18;51.83;;;;;;;1.79;100.00;102289.78;5040738;28;20044;-71
2024/03/07 04:47:00;;;;;;;83.43;52.35;;;;;;;1.77;100.00;102282.66;5043804;28;20028;-71
2024/03/07 04:49:28;;;;;;;82.68;52.42;;;;;;;1.77;100.00;102282.66;5041646;28;20025;-79
2024/03/07 04:51:55;;;;;;;85.53;51.53;;;;;;;1.65;100.00;102288.88;5043044;28;20379;-81
2024/03/07 04:54:22;;;;;;;84.70;51.50;;;;;;;1.66;100.00;102287.16;5043198;28;20029;-79
2024/03/07 04:56:49;;;;;;;79.85;50.80;;;;;;;1.67;100.00;102289.88;5046351;28;20500;-74
2024/03/07 04:59:16;;;;;;;84.50;51.45;;;;;;;1.63;100.00;102293.09;5045895;28;20025;-78
2024/03/07 05:01:41;;;;;;;80.00;50.55;;;;;;;1.61;100.00;102284.28;5045217;28;20045;-79
2024/03/07 05:04:07;;;;;;;80.95;49.53;;;;;;;1.53;100.00;102282.88;5048007;28;20506;-80
2024/03/07 05:06:36;;;;;;;82.72;50.63;;;;;;;1.50;100.00;102291.41;5043572;28;20034;-77
2024/03/07 05:09:03;;;;;;;78.53;50.53;;;;;;;1.51;100.00;102281.88;5047761;28;20044;-74
2024/03/07 05:11:31;;;;;;;77.72;49.88;;;;;;;1.45;100.00;102295.41;5045476;28;20080;-76
2024/03/07 05:13:57;;;;;;;77.63;50.45;;;;;;;1.41;100.00;102279.50;5046985;28;20038;-78
2024/03/07 05:16:31;;;;;;;77.25;50.08;;;;;;;1.43;100.00;102291.81;5045565;28;20116;-71
2024/03/07 05:18:59;;;;;;;79.88;49.72;;;;;;;1.37;100.00;102286.22;5047027;28;20022;-76
2024/03/07 05:21:38;;;;;;;77.43;49.35;;;;;;;1.27;100.00;102279.50;5045534;28;20049;-74
2024/03/07 05:24:04;;;;;;;80.30;50.55;;;;;;;1.30;100.00;102284.91;5040254;28;20037;-76
2024/03/07 05:26:35;;;;;;;82.38;50.47;;;;;;;1.23;100.00;102279.22;5046050;28;20079;-73
2024/03/07 05:29:05;;;;;;;79.13;50.83;;;;;;;1.25;100.00;102285.41;5044703;28;20116;-74
2024/03/07 05:31:34;;;;;;;82.85;52.05;;;;;;;1.26;100.00;102285.50;5047121;28;20029;-71
2024/03/07 05:34:03;;;;;;;85.20;52.50;;;;;;;1.24;100.00;102289.72;5043345;28;20034;-70
2024/03/07 05:36:29;;;;;;;87.50;53.65;;;;;;;1.29;100.00;102285.69;5047038;28;20033;-82
2024/03/07 05:38:54;;;;;;;87.90;53.15;;;;;;;1.26;100.00;102284.63;5045409;28;20025;-80
2024/03/07 05:41:20;;;;;;;87.20;53.90;;;;;;;1.24;100.00;102287.13;5046157;28;20030;-82
2024/03/07 05:43:45;;;;;;;87.90;53.78;;;;;;;1.25;100.00;102286.28;5045493;28;20104;-82
2024/03/07 05:46:11;;;;;;;83.32;52.67;;;;;;;1.25;100.00;102288.00;5043103;28;20476;-81
2024/03/07 05:48:36;;;;;;;90.45;55.47;;;;;;;1.26;100.00;102285.50;5047479;28;20063;-81
2024/03/07 05:51:02;;;;;;;91.25;54.88;;;;;;;1.25;100.00;102291.50;5044365;28;20032;-82
2024/03/07 05:53:28;;;;;;;92.80;54.88;;;;;;;1.26;100.00;102295.03;5046401;28;20037;-80
2024/03/07 05:55:53;;;;;;;95.90;56.30;;;;;;;1.28;100.00;102289.13;5044171;28;20092;-82
2024/03/07 05:58:22;;;;;;;96.78;62.78;;;;;;;1.30;100.00;102291.84;5045551;28;20034;-73
2024/03/07 06:00:49;;;;;;;95.15;57.05;;;;;;;1.33;100.00;102286.81;5044690;28;20472;-78
2024/03/07 06:03:21;;;;;;;92.10;56.30;;;;;;;1.35;100.00;102291.31;5044490;28;20488;-71
2024/03/07 06:05:50;;;;;;;99.53;61.30;;;;;;;1.34;100.00;102286.91;5044280;28;20123;-80
2024/03/07 06:08:19;;;;;;;104.35;68.57;;;;;;;1.35;100.00;102286.09;5044672;28;20060;-81
2024/03/07 06:10:45;;;;;;;106.80;66.82;;;;;;;1.34;100.00;102286.91;5046064;28;20718;-81
2024/03/07 06:13:12;;;;;;;114.95;75.53;;;;;;;1.31;100.00;102291.94;5043705;28;20030;-74
2024/03/07 06:15:38;;;;;;;141.35;97.72;;;;;;;1.33;100.00;102287.72;5047008;28;20032;-81
2024/03/07 06:18:04;;;;;;;102.70;62.55;;;;;;;1.34;100.00;102286.00;5039218;28;20041;-71
2024/03/07 06:20:30;;;;;;;99.57;62.50;;;;;;;1.34;100.00;102286.91;5045042;28;20028;-76
2024/03/07 06:22:57;;;;;;;110.03;69.45;;;;;;;1.35;100.00;102296.50;5044244;28;20040;-71
2024/03/07 06:25:45;;;;;;;108.38;64.72;;;;;;;1.37;100.00;102286.22;5043835;28;20039;-72
2024/03/07 06:28:11;;;;;;;95.60;58.58;;;;;;;1.36;100.00;102292.22;5042309;28;20086;-73
2024/03/07 06:30:39;;;;;;;98.72;58.63;;;;;;;1.37;100.00;102294.94;5045285;28;20467;-75
2024/03/07 06:33:05;;;;;;;94.28;56.60;;;;;;;1.39;100.00;102298.53;5037993;28;20029;-70
2024/03/07 06:35:30;;;;;;;99.53;59.35;;;;;;;1.42;100.00;102292.63;5044685;28;20029;-70
2024/03/07 06:37:56;;;;;;;98.85;59.00;;;;;;;1.44;100.00;102283.19;5043896;28;20036;-70
2024/03/07 06:40:22;;;;;;;97.72;58.67;;;;;;;1.46;100.00;102283.31;5043533;28;20032;-71
2024/03/07 06:42:52;;;;;;;100.03;59.72;;;;;;;1.52;100.00;102291.50;5043721;28;20029;-81
2024/03/07 06:45:18;;;;;;;96.72;57.75;;;;;;;1.59;100.00;102288.50;5044010;28;20091;-75
2024/03/07 06:47:44;;;;;;;101.38;60.00;;;;;;;1.61;100.00;102284.28;5045566;28;20028;-80
2024/03/07 06:50:09;;;;;;;100.72;60.75;;;;;;;1.67;100.00;102278.53;5042737;28;20033;-83
2024/03/07 06:52:35;;;;;;;97.22;58.05;;;;;;;1.72;100.00;102278.03;5046119;28;20067;-72
2024/03/07 06:55:05;;;;;;;98.22;60.20;;;;;;;1.79;100.00;102281.03;5041930;28;20033;-74
2024/03/07 06:57:31;;;;;;;95.20;59.00;;;;;;;1.84;100.00;102277.00;5045446;28;20071;-70
2024/03/07 06:59:56;;;;;;;101.07;59.85;;;;;;;1.90;100.00;102287.81;5043550;28;20456;-70
2024/03/07 07:02:21;;;;;;;97.05;59.17;;;;;;;1.96;100.00;102282.09;5044223;28;20095;-70
2024/03/07 07:04:47;;;;;;;98.55;60.10;;;;;;;1.98;100.00;102281.38;5044598;28;20025;-70
2024/03/07 07:07:13;;;;;;;95.45;58.88;;;;;;;2.05;100.00;102288.78;5025230;28;20052;-76
2024/03/07 07:09:40;;;;;;;94.57;59.03;;;;;;;2.12;100.00;102284.84;5045570;28;20091;-71
2024/03/07 07:12:06;;;;;;;97.15;60.53;;;;;;;2.17;100.00;102283.44;5042293;28;20068;-73
2024/03/07 07:14:31;;;;;;;98.43;61.25;;;;;;;2.24;100.00;102276.84;5045234;28;20070;-83
2024/03/07 07:16:58;;;;;;;93.82;59.38;;;;;;;2.32;100.00;102278.22;5042220;28;20396;-71
2024/03/07 07:19:24;;;;;;;90.80;59.42;;;;;;;2.41;100.00;102284.00;5044111;28;20034;-70
2024/03/07 07:21:53;;;;;;;90.20;58.13;;;;;;;2.51;100.00;102279.34;5044293;28;20029;-70
2024/03/07 07:24:25;;;;;;;88.45;57.75;;;;;;;2.64;100.00;102270.56;5043181;28;20073;-71
2024/03/07 07:26:50;;;;;;;86.40;56.78;;;;;;;2.76;100.00;102268.66;5043713;28;20037;-70
2024/03/07 07:29:16;;;;;;;85.15;56.38;;;;;;;2.89;100.00;102267.66;5042667;28;20124;-71
2024/03/07 07:31:42;;;;;;;79.95;54.50;;;;;;;3.01;100.00;102276.19;5045505;28;20163;-71
2024/03/07 07:34:07;;;;;;;81.32;55.05;;;;;;;3.11;100.00;102265.47;5041887;28;20488;-71
2024/03/07 07:36:33;;;;;;;70.45;51.78;;;;;;;3.21;100.00;102279.06;5045148;28;20031;-71
2024/03/07 07:38:58;;;;;;;67.30;50.47;;;;;;;3.35;100.00;102272.00;5042502;28;20533;-71
2024/03/07 07:41:23;;;;;;;65.75;48.78;;;;;;;3.47;100.00;102268.38;5043621;28;20033;-71
2024/03/07 07:43:50;;;;;;;64.45;47.28;;;;;;;3.64;100.00;102273.63;5043666;28;20064;-80
2024/03/07 07:46:16;;;;;;;59.47;46.38;;;;;;;3.76;100.00;102262.97;5042390;28;20034;-81
2024/03/07 07:48:42;;;;;;;60.85;46.15;;;;;;;3.90;100.00;102267.22;5044688;28;20033;-82
2024/03/07 07:51:07;;;;;;;59.05;45.85;;;;;;;4.06;100.00;102258.47;5041933;28;20033;-82
2024/03/07 07:53:34;;;;;;;54.78;43.33;;;;;;;4.18;100.00;102267.00;5044920;28;20021;-82
2024/03/07 07:55:59;;;;;;;56.05;42.72;;;;;;;4.40;100.00;102265.50;5042309;28;20079;-82
2024/03/07 07:58:24;;;;;;;53.28;42.22;;;;;;;4.53;100.00;102262.69;5043626;28;20025;-82
2024/03/07 08:00:50;;;;;;;51.30;40.03;;;;;;;4.74;100.00;102271.59;5042054;28;20482;-82
2024/03/07 08:03:17;;;;;;;50.83;39.05;;;;;;;4.80;100.00;102261.41;5042127;28;20033;-82
2024/03/07 08:05:44;;;;;;;50.60;39.22;;;;;;;4.98;100.00;102269.28;5044851;28;20110;-70
2024/03/07 08:08:13;;;;;;;47.75;36.65;;;;;;;5.09;100.00;102260.25;5041386;28;20032;-80
2024/03/07 08:10:41;;;;;;;47.50;36.83;;;;;;;5.26;100.00;102255.84;5044710;28;20094;-71
2024/03/07 08:13:08;;;;;;;45.83;37.10;;;;;;;5.40;100.00;102259.09;5041320;28;20087;-81
2024/03/07 08:15:33;;;;;;;46.20;36.63;;;;;;;5.50;100.00;102253.47;5044335;28;20029;-72
2024/03/07 08:17:59;;;;;;;47.03;36.03;;;;;;;5.59;100.00;102245.13;5040399;28;20496;-73
2024/03/07 08:20:26;;;;;;;46.45;35.70;;;;;;;5.79;100.00;102251.31;5041893;28;20454;-74
2024/03/07 08:22:52;;;;;;;43.85;34.30;;;;;;;5.92;100.00;102248.44;5042813;28;20029;-78
2024/03/07 08:25:19;;;;;;;44.42;33.40;;;;;;;6.01;100.00;102252.34;5042301;28;20060;-70
2024/03/07 08:27:47;;;;;;;44.08;34.28;;;;;;;6.12;100.00;102251.09;5043765;28;20092;-71
2024/03/07 08:30:14;;;;;;;42.33;33.15;;;;;;;6.21;100.00;102248.88;5041582;28;20422;-80
2024/03/07 08:32:53;;;;;;;41.53;33.08;;;;;;;6.27;100.00;102241.28;5044391;28;20025;-75
2024/03/07 08:35:19;;;;;;;41.42;31.95;;;;;;;6.42;100.00;102240.16;5042081;28;20033;-74
2024/03/07 08:37:52;;;;;;;41.25;30.85;;;;;;;6.58;100.00;102241.72;5043735;28;20027;-82
2024/03/07 08:40:19;;;;;;;40.20;30.88;;;;;;;6.82;100.00;102240.97;5041816;28;20033;-74
2024/03/07 08:42:52;;;;;;;39.17;29.48;;;;;;;7.05;100.00;102234.03;5043322;28;20364;-75
2024/03/07 08:45:21;;;;;;;37.17;28.83;;;;;;;7.21;100.00;102232.91;5041950;28;20029;-71
2024/03/07 08:47:48;;;;;;;38.25;30.05;;;;;;;7.34;100.00;102227.34;5043487;28;20076;-70
2024/03/07 08:50:16;;;;;;;38.88;29.70;;;;;;;7.57;100.00;102236.13;5041073;28;20029;-74
2024/03/07 08:52:42;;;;;;;37.63;28.58;;;;;;;7.70;100.00;102229.56;5044049;28;20021;-71
2024/03/07 08:55:12;;;;;;;36.83;28.08;;;;;;;7.95;100.00;102227.88;5041016;28;20396;-77
2024/03/07 08:57:38;;;;;;;37.45;27.70;;;;;;;7.98;100.00;102218.38;5036735;28;20061;-71
2024/03/07 09:00:08;;;;;;;36.95;27.38;;;;;;;8.00;100.00;102224.56;5043706;28;20037;-71
2024/03/07 09:02:38;;;;;;;35.72;26.80;;;;;;;8.27;100.00;102228.16;5040882;28;20037;-71
2024/03/07 09:05:05;;;;;;;36.72;27.35;;;;;;;8.53;100.00;102221.19;5044612;28;20116;-71
2024/03/07 09:07:31;;;;;;;35.42;25.73;;;;;;;8.86;100.00;102212.66;5043122;28;20043;-75
2024/03/07 09:09:57;;;;;;;34.25;25.75;;;;;;;8.97;100.00;102207.72;5041768;28;20029;-73
2024/03/07 09:12:22;;;;;;;34.47;25.45;;;;;;;9.09;100.00;102210.75;5042028;28;20026;-75
2024/03/07 09:14:48;;;;;;;33.53;23.83;;;;;;;9.25;100.00;102198.97;5042982;28;20033;-72
2024/03/07 09:17:13;;;;;;;33.83;24.92;;;;;;;9.37;100.00;102201.06;5039589;28;20571;-81
2024/03/07 09:19:39;;;;;;;33.38;25.08;;;;;;;9.53;100.00;102200.69;5044073;28;20079;-80
2024/03/07 09:22:06;;;;;;;34.03;25.40;;;;;;;9.87;100.00;102193.78;5040632;28;20018;-71
2024/03/07 09:24:32;;;;;;;33.80;24.65;;;;;;;10.12;100.00;102190.06;5042942;28;20494;-72
2024/03/07 09:26:57;;;;;;;31.42;23.10;;;;;;;9.86;100.00;102197.25;5041306;28;20120;-71
2024/03/07 09:29:23;;;;;;;31.75;23.08;;;;;;;9.88;100.00;102206.09;5041659;28;20056;-71
2024/03/07 09:31:53;;;;;;;31.85;22.45;;;;;;;10.09;100.00;102199.66;5042717;28;20064;-71
2024/03/07 09:34:20;;;;;;;30.92;22.15;;;;;;;10.28;100.00;102190.47;5040822;28;20112;-71
2024/03/07 09:36:47;;;;;;;30.42;21.70;;;;;;;10.53;100.00;102192.06;5042947;28;20074;-72
2024/03/07 09:39:12;;;;;;;30.67;22.17;;;;;;;10.89;100.00;102191.22;5040429;28;20108;-71
2024/03/07 09:41:39;;;;;;;30.20;21.20;;;;;;;10.81;100.00;102188.34;5047093;28;20495;-72
2024/03/07 09:44:05;;;;;;;29.58;21.30;;;;;;;10.84;100.00;102186.66;5043856;28;20029;-71
2024/03/07 09:46:31;;;;;;;29.65;20.63;;;;;;;11.14;100.00;102186.50;5046770;28;20053;-80
2024/03/07 09:48:58;;;;;;;29.75;20.05;;;;;;;11.52;100.00;102186.47;5043888;28;20050;-80
2024/03/07 09:51:24;;;;;;;29.02;20.17;;;;;;;11.74;100.00;102179.88;5045387;28;20390;-77
2024/03/07 09:53:52;;;;;;;29.48;20.13;;;;;;;12.03;100.00;102185.78;5046134;28;20466;-73
2024/03/07 09:56:20;;;;;;;28.10;19.92;;;;;;;12.24;100.00;102186.19;5044370;28;20017;-71
2024/03/07 09:58:49;;;;;;;29.05;19.42;;;;;;;12.70;100.00;102187.00;5046482;28;20020;-72
2024/03/07 10:01:15;;;;;;;28.63;19.30;;;;;;;12.55;100.00;102191.19;5044271;28;20022;-72
2024/03/07 10:03:44;;;;;;;29.65;19.98;;;;;;;12.78;100.00;102189.78;5046826;28;20082;-79
2024/03/07 10:06:10;;;;;;;29.23;19.42;;;;;;;12.93;100.00;102178.50;5043566;28;20032;-75
2024/03/07 10:08:36;;;;;;;28.13;18.25;;;;;;;12.88;100.00;102192.59;5046832;28;20025;-80
2024/03/07 10:11:02;;;;;;;26.98;18.35;;;;;;;12.88;100.00;102184.63;5043856;28;20025;-80
2024/03/07 10:13:28;;;;;;;26.73;17.67;;;;;;;12.91;100.00;102176.72;5045435;28;20037;-80
2024/03/07 10:15:59;;;;;;;27.70;18.70;;;;;;;13.14;100.00;102183.28;5045262;28;20032;-75
2024/03/07 10:18:27;;;;;;;27.52;18.35;;;;;;;13.28;100.00;102164.88;5044986;28;20041;-70
2024/03/07 10:20:55;;;;;;;27.50;17.75;;;;;;;13.39;100.00;102165.94;5045118;28;20025;-75
2024/03/07 10:23:20;;;;;;;27.60;18.30;;;;;;;13.39;100.00;102166.84;5044246;28;20041;-72
2024/03/07 10:25:50;;;;;;;27.83;19.10;;;;;;;13.83;100.00;102165.59;5046100;28;20025;-72
2024/03/07 10:28:17;;;;;;;27.77;19.20;;;;;;;13.82;100.00;102163.84;5043731;28;20025;-71
2024/03/07 10:30:47;;;;;;;28.90;18.80;;;;;;;13.22;100.00;102161.28;5046466;28;20498;-71
2024/03/07 10:33:13;;;;;;;28.48;19.60;;;;;;;13.16;100.00;102155.84;5043429;28;20421;-73
2024/03/07 10:35:39;;;;;;;28.73;19.55;;;;;;;13.75;100.00;102154.91;5046358;28;20062;-78
2024/03/07 10:38:11;;;;;;;28.77;19.98;;;;;;;14.45;100.00;102151.19;5043317;28;20025;-77
2024/03/07 10:40:40;;;;;;;28.05;19.35;;;;;;;14.70;100.00;102162.09;5039104;28;20079;-78
2024/03/07 10:43:09;;;;;;;28.52;19.33;;;;;;;14.36;100.00;102150.22;5046101;28;20028;-78
2024/03/07 10:45:42;;;;;;;28.08;19.25;;;;;;;13.66;100.00;102151.22;5043266;28;20038;-70
2024/03/07 10:48:11;;;;;;;30.77;19.25;;;;;;;13.86;100.00;102146.16;5046102;28;20021;-75
2024/03/07 10:50:47;;;;;;;27.88;18.75;;;;;;;14.13;100.00;102159.75;5042978;28;20037;-74
2024/03/07 10:53:18;;;;;;;27.88;18.52;;;;;;;15.04;100.00;102151.66;5038313;28;20116;-73
2024/03/07 10:55:53;;;;;;;27.55;18.42;;;;;;;15.74;100.00;102157.34;5044498;28;20116;-74
2024/03/07 10:58:32;;;;;;;27.23;17.40;;;;;;;15.96;100.00;102161.94;5043523;28;20041;-86
2024/03/07 11:01:03;;;;;;;27.55;18.60;;;;;;;16.17;100.00;102146.84;5044265;28;20468;-71
2024/03/07 11:03:32;;;;;;;28.33;18.73;;;;;;;16.47;100.00;102155.75;5045148;28;20038;-71
2024/03/07 11:05:59;;;;;;;27.95;18.77;;;;;;;16.00;100.00;102153.06;5044102;28;20138;-72